createdAt,value
2023-01-01T08:00:46.567Z,11.46
2023-01-01T08:06:22.720Z,11.51
2023-01-01T08:59:16.240Z,12.61
2023-01-01T09:04:21.109Z,12.79
2023-01-01T09:09:31.093Z,12.81
2023-01-01T09:14:35.568Z,12.83
2023-01-01T09:19:41.313Z,12.93
2023-01-01T09:24:44.583Z,13.01
2023-01-01T09:30:13.946Z,13.16
2023-01-01T09:36:39.751Z,13.24
2023-01-01T09:42:01.464Z,13.40
2023-01-01T09:47:10.722Z,13.54
2023-01-01T09:52:16.497Z,13.56
2023-01-01T09:57:23.351Z,13.66
2023-01-01T10:03:17.620Z,13.76
2023-01-01T10:08:31.533Z,13.81
2023-01-01T10:13:39.511Z,13.83
2023-01-01T10:18:44.054Z,14.02
2023-01-01T10:23:49.659Z,14.16
2023-01-01T10:29:01.671Z,14.30
2023-01-01T10:34:26.133Z,14.34
2023-01-01T10:39:29.751Z,14.51
2023-01-01T10:44:36.722Z,14.64
2023-01-01T10:49:55.450Z,14.64
2023-01-01T10:55:00.099Z,14.54
2023-01-01T11:00:29.823Z,14.48
2023-01-01T11:05:33.349Z,14.53
2023-01-01T11:10:42.831Z,14.63
2023-01-01T11:16:22.661Z,14.73
2023-01-01T12:10:10.823Z,14.82
2023-01-01T12:31:19.224Z,14.58
2023-01-01T12:43:45.833Z,14.34
2023-01-01T12:49:59.413Z,14.32
2023-01-01T14:59:22.084Z,12.93
2023-01-01T15:04:29.937Z,12.90
2023-01-01T17:06:51.698Z,11.03
2023-01-01T17:11:55.097Z,10.95
2023-01-01T17:34:46.590Z,10.88
2023-01-01T17:40:00.906Z,10.82
2023-01-01T18:27:44.202Z,10.75
2023-01-01T19:29:03.465Z,10.72
2023-01-01T19:46:47.012Z,10.60
